METAR Data
IDs: Format: Raw Decoded Include TAF

Data at: 0903 UTC 26 Jan 2020

KGRB 260853Z AUTO 28006KT 10SM OVC050 01/M01 A2983 RMK AO2 SLP109 60000 T00111011 53002 $
KGRB 260809Z AUTO 29007KT 10SM SCT021 OVC047 01/M01 A2983 RMK AO2 T00111011 $
KGRB 260753Z AUTO 30006KT 10SM BKN021 OVC047 01/M01 A2983 RMK AO2 SLP108 T00111011 $
KGRB 260746Z AUTO 29008KT 10SM FEW013 BKN021 OVC050 01/M01 A2983 RMK AO2 T00111006 $
KGRB 260653Z AUTO 30008KT 10SM OVC045 01/M01 A2982 RMK AO2 SNE18 SLP106 P0000 T00111011 $
KGRB 260553Z AUTO 29008KT 6SM -SN BR FEW007 SCT011 OVC030 01/M01 A2983 RMK AO2 SLP107 P0001 60001 T00111006 10017 20011 400170000 53004 $
KGRB 260546Z AUTO 29009KT 6SM -SN BR SCT007 SCT011 OVC028 01/M01 A2983 RMK AO2 P0001 T00111006 $
KGRB 260506Z 28006KT 8SM -SN BKN007 BKN015 OVC032 01/M01 A2982 RMK AO2 P0001 T00111006 $
KGRB 260453Z 28006KT 9SM -SN SCT006 BKN015 OVC037 01/M01 A2982 RMK AO2 RAE08UPB08E45SNB45 SLP105 P0000 T00111006 $
KGRB 260448Z 29006KT 10SM -SN FEW006 BKN014 OVC042 01/M01 A2982 RMK AO2 RAE08UPB08E45SNB45 P0000 $
KGRB 260410Z 29007KT 10SM UP FEW009 OVC039 01/M01 A2981 RMK AO2 RAE08UPB08 P0000 T00111006 $
KGRB 260353Z 29008KT 10SM -RA FEW028 OVC047 02/M01 A2981 RMK AO2 RAB44 SLP103 P0000 T00171006 $
KGRB 260340Z 29006KT 10SM FEW028 OVC050 02/M01 A2981 RMK AO2 T00171006 $
KGRB 260332Z 29006KT 10SM BKN028 OVC050 02/M01 A2981 RMK AO2 T00171006 $
KGRB 260304Z 30006KT 10SM SCT019 SCT027 OVC050 02/00 A2981 RMK AO2 T00170000 $
KGRB 260253Z 30006KT 10SM BKN019 BKN025 OVC055 01/00 A2981 RMK AO2 RAE0157 SLP102 P0000 60000 T00110000 50001 $
KGRB 260153Z 27006KT 9SM -RA FEW012 BKN028 OVC035 01/00 A2981 RMK AO2 RAB32 SLP104 P0000 T00110000 $
KGRB 260146Z 27006KT 8SM -RA FEW013 SCT021 OVC028 01/00 A2981 RMK AO2 RAB32 P0000 T00110000 $
KGRB 260053Z 28006KT 10SM OVC032 01/00 A2981 RMK AO2 SLP104 T00110000 $
KGRB 252353Z 28005KT 10SM FEW018 BKN037 OVC055 01/M01 A2981 RMK AO2 UPB2258E21 SLP102 P0000 60001 T00111006 10017 20011 51009 $
KGRB 252323Z 29005KT 9SM FEW011 SCT028 OVC044 01/M01 A2980 RMK AO2 UPB2258E21 P0000 T00111006 $
KGRB 252253Z 29004KT 8SM BKN017 OVC024 01/M01 A2980 RMK AO2 SLP098 T00111006 $
KGRB 252157Z 31003KT 10SM SCT010 OVC023 02/M01 A2979 RMK AO2 T00171006 $
KGRB 252153Z 31003KT 10SM BKN008 OVC023 01/M01 A2979 RMK AO2 SLP096 T00111006 $
KGRB 252053Z 33005KT 10SM OVC007 02/M01 A2978 RMK AO2 SLP091 60001 T00171006 53004 $
KGRB 252018Z 33006KT 10SM OVC005 02/M01 A2977 RMK AO2 T00171006 $
KGRB 252003Z 34006KT 10SM OVC004 01/M01 A2977 RMK AO2 T00111006 $
KGRB 251953Z 33004KT 10SM OVC005 01/00 A2977 RMK AO2 SNB1858E21 SLP088 P0001 T00110000 $
KGRB 251950Z 34004KT 10SM OVC005 01/00 A2977 RMK AO2 SNB1858E21 P0001 $
KGRB 251853Z 34005KT 6SM BR OVC004 01/M01 A2977 RMK AO2 SLP088 T00111006 $
KGRB 251753Z 36007KT 10SM OVC004 01/M01 A2978 RMK AO2 SLP092 60003 T00111006 10011 20000 50004 $
KGRB 251712Z 35006KT 10SM OVC004 01/M01 A2978 RMK AO2 T00111006 $
KGRB 251653Z 36005KT 9SM OVC005 01/M01 A2979 RMK AO2 SLP094 T00111006 $
KGRB 251553Z 36007KT 10SM OVC005 01/M01 A2978 RMK AO2 SLP092 T00061011 $
KGRB 251453Z 33005KT 5SM BR OVC007 01/M01 A2977 RMK AO2 SNE12B13E42 SLP089 P0000 60003 T00061011 50002 $
KGRB 251440Z 32005KT 3SM -SN BR BKN007 OVC039 01/M01 A2977 RMK AO2 SNE12B13 P0000 T00061011 $
KGRB 251412Z 34006KT 2 1/2SM BR OVC007 00/M01 A2977 RMK AO2 SNE12 P0000 T00001011
KGRB 251353Z 34005KT 3SM -SN BR BKN008 OVC037 00/M01 A2977 RMK AO2 SLP090 P0000 T00001011
KGRB 251351Z 35006KT 3SM -SN BR BKN008 OVC037 00/M01 A2977 RMK AO2 P0000
KGRB 251338Z 35005KT 2 1/2SM -SN BR BKN008 OVC035 00/M01 A2977 RMK AO2 P0000 T00001011
KGRB 251253Z 34005KT 3SM -SN BR BKN009 OVC012 00/M01 A2976 RMK AO2 SLP088 P0003 T00001011
KGRB 251251Z 34005KT 3SM -SN BR BKN009 OVC012 00/M01 A2976 RMK AO2 P0003
KGRB 251249Z 33005KT 2 1/2SM -SN BR SCT006 OVC012 00/M01 A2976 RMK AO2 P0003
KGRB 251153Z 36005KT 1 1/2SM -SN BR OVC007 00/M01 A2975 RMK AO2 SLP084 P0003 60024 70042 T00001011 10006 20000 55001
KGRB 251053Z AUTO 36006KT 1 1/2SM -SN BR OVC008 01/M01 A2975 RMK AO2 SLP081 P0003 T00061011
KGRB 250953Z AUTO 35006KT 1 1/2SM -SN BR OVC006 01/M01 A2974 RMK AO2 SLP079 P0003 T00061006
KGRB 250927Z AUTO 36007KT 2SM -SN BR OVC007 01/M01 A2975 RMK AO2 P0002 T00061006
KGRB 250853Z AUTO 36007KT 1 1/4SM -SN BR OVC006 01/M01 A2976 RMK AO2 SLP084 P0005 60015 T00061006 58004
KGRB 250802Z AUTO 36007KT 1SM -SN BR SCT005 OVC009 01/M01 A2977 RMK AO2 P0001 T00061006 RVRNO
KGRB 250753Z AUTO 36009KT 3/4SM -SN BR VV006 01/M01 A2977 RMK AO2 SLP087 P0009 T00061006 RVRNO
KGRB 250717Z AUTO 02007KT 3/4SM -SN BR OVC005 01/M01 A2977 RMK AO2 P0003 T00061006 RVRNO
KGRB 250653Z AUTO 01009KT 1 1/4SM -SN BR OVC005 01/M01 A2977 RMK AO2 UPB00E07SNE00B15 SLP089 P0001 T00061006
KGRB 250628Z AUTO 01009KT 2 1/2SM -SN BR OVC005 01/M01 A2977 RMK AO2 UPB00E07SNE00B15 P0000 T00061006
KGRB 250553Z AUTO 03011KT 4SM -SN BR OVC005 01/M01 A2978 RMK AO2 SLP093 P0001 60010 T00061006 10011 20006 400170006 56015
KGRB 250527Z AUTO 01009KT 3SM -SN BR OVC004 01/M01 A2979 RMK AO2 P0001 T00061006
KGRB 250453Z AUTO 02008KT 2SM -SN BR OVC004 01/00 A2980 RMK AO2 UPE31SNB31 SLP098 P0002 T00060000
KGRB 250438Z 02010KT 2SM -SN BR OVC003 01/00 A2980 RMK AO2 UPE31SNB31 P0001 T00060000
KGRB 250353Z 02011KT 5SM UP BR OVC004 01/00 A2981 RMK AO2 UPB49SNE49 SLP102 P0001 T00060000
KGRB 250253Z 03012KT 3SM -SN BR OVC004 01/00 A2983 RMK AO2 SLP109 P0003 60006 T00060000 58009
KGRB 250240Z 03010KT 2SM -SN BR OVC004 01/00 A2983 RMK AO2 P0003 T00060000
KGRB 250219Z 02011KT 3SM -SN BR OVC003 01/M01 A2983 RMK AO2 P0002 T00061006
KGRB 250200Z 03010KT 1SM -SN BR OVC003 01/M01 A2984 RMK AO2 P0000 T00061006 RVRNO
KGRB 250153Z 03011KT 2SM -SN BR OVC003 01/M01 A2984 RMK AO2 SLP112 P0002 T00061006
KGRB 250144Z 02011KT 4SM -SN BR OVC003 01/M01 A2984 RMK AO2 P0002 T00061006
KGRB 250134Z 03011KT 2 1/2SM -SN BR OVC003 01/M01 A2984 RMK AO2 P0002 T00061006
KGRB 250125Z 02010KT 1 3/4SM -SN BR OVC003 01/M01 A2984 RMK AO2 P0001 T00061006
KGRB 250053Z 02009KT 2SM -SN BR OVC003 01/00 A2985 RMK AO2 UPE15SNB17 SLP115 P0001 T00110000
KGRB 250008Z 03009KT 2SM UP BR OVC002 01/00 A2986 RMK AO2 P0000 T00110000
KGRB 242353Z 03009KT 1 3/4SM UP BR OVC002 01/00 A2986 RMK AO2 UPB17 SLP118 P0000 60002 T00110000 10017 20011 58004
KGRB 242253Z 02009KT 1 1/4SM BR OVC002 01/00 A2986 RMK AO2 UPB15E52RAB41E44 SLP120 P0001 T00110000
KGRB 242213Z 03008KT 1SM BR OVC002 01/00 A2987 RMK AO2 T00110000 RVRNO
KGRB 242153Z 03009KT 3/4SM BR OVC002 01/00 A2987 RMK AO2 SLP122 T00110000 RVRNO